Stations météo

Publicité
Formigueres, France (7737): Température de l'air & dewpoint: 26.10.2020 00:00:00 - 01.11.2020 00:00:00 (CET)Formigueres, France (7737): Vitesse du vent & gusts: 26.10.2020 00:00:00 - 01.11.2020 00:00:00 (CET)Formigueres, France (7737): Direction du vent: 26.10.2020 00:00:00 - 01.11.2020 00:00:00 (CET)Formigueres, France (7737): Quantités de précipitations: 26.10.2020 00:00:00 - 01.11.2020 00:00:00 (CET)
Date & Time tt [°C] td [°C] ff [km/h] ff [knt] fx [km/h] fx [knt] dd rr [mm]
01.11.2020 00:00:00 - - - - - - - -
31.10.2020 23:00:00 3,8 -2,8 10 5 23 12 WNW 0,0
31.10.2020 22:00:00 3,9 -2,3 14 7 23 13 WSW 0,0
31.10.2020 21:00:00 5,0 -2,8 11 6 24 13 WSW 0,0
31.10.2020 20:00:00 6,1 -2,5 14 7 25 14 WSW 0,0
31.10.2020 19:00:00 7,3 -1,9 16 9 22 12 WSW 0,0
31.10.2020 18:00:00 9,4 -2,0 13 7 23 12 W 0,0
31.10.2020 17:00:00 16,8 -1,4 5 3 25 13 WNW 0,0
31.10.2020 16:00:00 18,4 -2,6 15 8 31 17 N 0,0
31.10.2020 15:00:00 20,3 -4,1 16 8 29 16 NNE 0,0
31.10.2020 14:00:00 20,4 -8,0 14 8 - - NNE 0,0
31.10.2020 13:00:00 20,9 -7,6 19 10 35 19 NNE 0,0
31.10.2020 12:00:00 21,2 -6,5 15 8 36 20 S 0,0
31.10.2020 11:00:00 19,4 -7,9 21 11 37 20 S 0,0
31.10.2020 10:00:00 14,2 0,4 3 2 15 8 NNE 0,0
31.10.2020 09:00:00 10,2 -2,5 9 5 26 14 W 0,0
31.10.2020 08:00:00 5,4 -5,9 21 11 29 16 WSW 0,0
31.10.2020 07:00:00 4,6 -6,3 17 9 27 15 WSW 0,0
31.10.2020 06:00:00 4,3 -6,6 20 11 29 16 WSW 0,0
31.10.2020 05:00:00 4,4 -6,5 24 13 32 18 W 0,0
31.10.2020 04:00:00 4,4 -6,2 18 10 27 15 WSW 0,0
31.10.2020 03:00:00 4,7 -6,0 16 9 27 14 WSW 0,0
31.10.2020 02:00:00 4,8 -5,3 16 9 24 13 WSW 0,0
31.10.2020 01:00:00 5,7 -5,0 16 8 28 15 WSW 0,0
31.10.2020 00:00:00 5,9 -3,7 15 8 26 14 WSW 0,0
30.10.2020 23:00:00 6,1 -3,0 19 10 26 14 WSW 0,0
30.10.2020 22:00:00 6,5 -1,9 15 8 24 13 WSW 0,0
30.10.2020 21:00:00 6,8 -0,9 16 9 24 13 WSW 0,0
30.10.2020 20:00:00 7,1 -0,4 14 7 24 13 WSW 0,0
30.10.2020 19:00:00 8,3 0,5 16 9 27 14 WSW 0,0
30.10.2020 18:00:00 10,3 1,6 18 10 27 14 W 0,0
30.10.2020 17:00:00 17,0 2,6 6 4 14 8 W 0,0
30.10.2020 16:00:00 19,5 1,4 9 5 23 12 NNE 0,0
30.10.2020 15:00:00 20,5 -0,2 12 6 23 12 NNE 0,0
30.10.2020 14:00:00 20,7 -0,1 13 7 23 12 NNE 0,0
30.10.2020 13:00:00 21,0 -2,2 10 5 19 10 NNE 0,0
30.10.2020 12:00:00 19,7 -0,4 4 2 10 6 ENE 0,0
30.10.2020 11:00:00 16,1 5,7 3 2 8 4 NE 0,0
30.10.2020 10:00:00 11,6 5,0 2 1 8 4 N 0,0
30.10.2020 09:00:00 7,8 0,3 2 1 19 10 WSW 0,0
30.10.2020 08:00:00 2,6 -2,3 6 3 24 13 WSW 0,0
30.10.2020 07:00:00 3,5 -1,9 13 7 23 13 WSW 0,0
30.10.2020 06:00:00 3,7 -1,1 15 8 23 13 WSW 0,0
30.10.2020 05:00:00 2,8 -1,2 13 7 20 11 WSW 0,0
30.10.2020 04:00:00 3,5 -0,7 9 5 20 11 WSW 0,0
30.10.2020 03:00:00 2,7 -0,8 7 4 21 11 WSW 0,0
30.10.2020 02:00:00 4,3 0,1 13 7 23 12 WSW 0,0
30.10.2020 01:00:00 3,0 -0,5 8 5 21 11 WSW 0,0
30.10.2020 00:00:00 4,5 0,6 12 6 22 12 WSW 0,0
29.10.2020 23:00:00 4,6 1,4 13 7 20 11 WSW 0,0
29.10.2020 22:00:00 4,4 1,8 10 6 23 12 WSW 0,0
29.10.2020 21:00:00 4,9 2,4 13 7 20 11 WSW 0,0
29.10.2020 20:00:00 5,7 3,2 12 7 18 10 WSW 0,0
29.10.2020 19:00:00 6,3 4,0 12 6 20 11 WSW 0,0
29.10.2020 18:00:00 7,7 5,3 8 4 15 8 WSW 0,0
29.10.2020 17:00:00 11,7 7,0 3 2 22 12 ENE 0,0
29.10.2020 16:00:00 13,0 7,2 8 4 27 15 NNE 0,0
29.10.2020 15:00:00 13,6 7,1 14 8 27 14 NNE 0,0
29.10.2020 14:00:00 13,1 7,1 15 8 35 19 NNE 0,0
29.10.2020 13:00:00 12,7 6,1 14 8 26 14 NNE 0,0
29.10.2020 12:00:00 12,9 5,3 3 1 14 8 E 0,0
29.10.2020 11:00:00 10,2 6,0 5 3 13 7 NE 0,0
29.10.2020 10:00:00 6,1 5,1 2 1 11 6 NE 0,0
29.10.2020 09:00:00 2,4 1,7 2 1 14 8 NNE 0,0
29.10.2020 08:00:00 1,7 1,3 8 4 19 10 WSW 0,0
29.10.2020 07:00:00 1,7 1,6 5 3 16 9 W 0,0
29.10.2020 06:00:00 1,8 1,5 4 2 16 8 WSW 0,0
29.10.2020 05:00:00 2,1 2,1 5 3 13 7 SSW 0,0
29.10.2020 04:00:00 2,2 2,1 4 2 15 8 NW 0,0
29.10.2020 03:00:00 3,2 3,2 9 5 15 8 WSW 0,0
29.10.2020 02:00:00 3,8 3,7 6 3 13 7 SSW 0,0
29.10.2020 01:00:00 5,5 5,5 2 1 21 11 W 0,0
29.10.2020 00:00:00 5,7 5,7 16 8 27 15 N 0,0
28.10.2020 23:00:00 5,8 5,8 17 9 32 18 N 0,0
28.10.2020 22:00:00 5,8 5,7 6 3 14 7 SSW 0,0
28.10.2020 21:00:00 6,2 6,2 3 2 23 12 WNW 0,0
28.10.2020 20:00:00 6,6 6,6 12 6 29 16 N 0,0
28.10.2020 19:00:00 6,9 6,8 13 7 21 12 N 0,0
28.10.2020 18:00:00 7,1 6,8 12 7 21 12 N 0,0
28.10.2020 17:00:00 7,2 6,6 6 3 29 16 NE 0,0
28.10.2020 16:00:00 7,8 7,4 19 10 33 18 N 0,0
28.10.2020 15:00:00 9,0 7,4 14 7 26 14 NNE 0,0
28.10.2020 14:00:00 10,0 7,6 13 7 32 18 NNE 0,0
28.10.2020 13:00:00 10,3 7,7 24 13 39 21 NNE 0,0
28.10.2020 12:00:00 12,4 8,7 13 7 28 15 NNE 0,0
28.10.2020 11:00:00 11,1 8,0 16 9 27 15 NNE 0,0
28.10.2020 10:00:00 11,0 7,5 6 4 21 11 NE 0,0
28.10.2020 09:00:00 7,3 5,3 4 2 18 10 NE 0,0
28.10.2020 08:00:00 5,3 4,1 9 5 21 12 SW 0,0
28.10.2020 07:00:00 4,6 3,7 12 6 19 10 WSW 0,0
28.10.2020 06:00:00 5,3 4,6 3 2 8 5 W 0,0
28.10.2020 05:00:00 5,1 4,4 4 2 10 6 SSW 0,0
28.10.2020 04:00:00 4,5 3,8 2 1 17 9 SSW 0,0
28.10.2020 03:00:00 4,9 3,9 8 5 14 7 WSW 0,0
28.10.2020 02:00:00 3,9 2,9 5 3 13 7 W 0,0
28.10.2020 01:00:00 4,3 3,3 5 3 11 6 SW 0,0
28.10.2020 00:00:00 3,7 2,2 2 1 16 8 W 0,0
27.10.2020 23:00:00 3,9 1,8 5 3 12 6 SSW 0,0
27.10.2020 22:00:00 3,7 1,9 4 2 16 9 W 0,0
27.10.2020 21:00:00 4,9 0,8 5 3 15 8 SSW 0,0
27.10.2020 20:00:00 6,1 1,4 6 4 24 13 SW 0,0
27.10.2020 19:00:00 7,1 1,6 8 4 16 9 SW 0,0
27.10.2020 18:00:00 7,3 3,2 4 2 12 7 SE 0,0
27.10.2020 17:00:00 8,3 2,9 6 3 18 10 NNE 0,0
27.10.2020 16:00:00 9,6 2,2 10 6 20 11 NNE 0,0
27.10.2020 15:00:00 12,0 -0,5 8 4 19 11 S 0,0
27.10.2020 14:00:00 11,2 -0,3 9 5 31 17 ESE 0,0
27.10.2020 13:00:00 9,4 0,3 2 1 14 8 SE 0,0
27.10.2020 12:00:00 8,8 1,0 4 2 15 8 S 0,0
27.10.2020 11:00:00 7,5 2,2 8 5 26 14 E 0,0
27.10.2020 10:00:00 4,3 0,1 18 10 40 21 NNW 0,0
27.10.2020 09:00:00 2,7 1,1 7 4 14 7 WNW 0,0
27.10.2020 08:00:00 1,2 0,5 5 3 13 7 WSW 0,0
27.10.2020 07:00:00 0,9 0,0 6 3 16 8 W 0,0
27.10.2020 06:00:00 0,9 0,2 5 3 12 6 WSW 0,0
27.10.2020 05:00:00 1,1 0,2 6 4 16 9 SSW 0,0
27.10.2020 04:00:00 1,7 -0,4 9 5 18 10 N 0,0
27.10.2020 03:00:00 1,5 -1,6 11 6 24 13 N 0,0
27.10.2020 02:00:00 2,6 -2,1 8 4 29 16 E 0,0
27.10.2020 01:00:00 2,1 -2,8 11 6 29 16 NNE 0,0
27.10.2020 00:00:00 1,8 -2,7 11 6 27 14 NNE 0,0
26.10.2020 23:00:00 2,0 -2,7 10 6 29 16 N 0,0
26.10.2020 22:00:00 2,4 -3,1 6 4 49 26 E 0,0
26.10.2020 21:00:00 1,5 -2,5 11 6 41 22 NNE 0,0
26.10.2020 20:00:00 1,8 -1,5 11 6 40 22 N 0,0
26.10.2020 19:00:00 1,6 -0,3 13 7 30 16 NNE 0,0
26.10.2020 18:00:00 1,8 -0,1 13 7 31 17 NNE 0,0
26.10.2020 17:00:00 2,3 -0,1 9 5 36 19 NNE 0,0
26.10.2020 16:00:00 3,7 -2,1 18 10 62 34 N 0,2
26.10.2020 15:00:00 4,1 -0,9 11 6 34 18 WNW 0,0
26.10.2020 14:00:00 5,2 0,4 5 3 39 21 N 0,0
26.10.2020 13:00:00 3,7 0,9 23 13 55 30 NNE 0,0
26.10.2020 12:00:00 4,6 1,3 22 12 49 26 NNE 0,0
26.10.2020 11:00:00 4,3 1,0 16 8 33 18 NNE 0,0
26.10.2020 10:00:00 2,4 0,9 16 9 36 19 NNE 0,0
26.10.2020 09:00:00 2,0 1,0 15 8 32 17 NNE 0,0
26.10.2020 08:00:00 1,7 0,7 16 9 30 16 NNE 0,0
26.10.2020 07:00:00 1,4 0,7 14 7 31 17 N 0,0
26.10.2020 06:00:00 1,8 1,1 14 8 29 16 N 0,0
26.10.2020 05:00:00 1,6 1,3 19 10 31 17 NNE 0,0
26.10.2020 04:00:00 1,4 1,1 10 5 22 12 NNW 0,0
26.10.2020 03:00:00 1,5 1,2 3 2 24 13 SSW 1,2
26.10.2020 02:00:00 1,2 1,1 16 8 37 20 N 1,6
26.10.2020 01:00:00 1,6 1,3 27 14 58 31 N 2,0
26.10.2020 00:00:00 4,0 3,4 24 13 45 24 N 0,0

tt = Température de l'air
td = dewpoint
ff = Vitesse du vent
fx = gusts
dd = Direction du vent
rr = Quantités de précipitations

stations d'obs. à proximité